Algood, Tennessee
Current Conditions -  °F | °C
As of 10:15 AM on Thursday 27 Nov 2014 (Local Time) from KSRB Reporting Station
Broken Clouds Broken Clouds  
Wind Chill:   Ceiling: 4000
Heat Index:   Visibility: 10mi
Dew Point: -1°   Wind: 5mph
Humidity: 81%   Direction: NA
Pressure: 30.32"   Gusts: NA
Location:  36.1802°N, 85.4582°W
Report Text: KSRB 271615Z AUTO VRB04KT 10SM SCT020 BKN040 02/M01 A3032 RMK
Loading
Personal Weather Stations






























Interactive Weather Map New forecast layout! Learn more

10-Day Weather Forecast

Advertisements
Track Severe Weather on mobile